sensor_id;sensor_type;location;lat;lon;timestamp;P1;durP1;ratioP1;P2;durP2;ratioP2
62151;SDS011;48139;47.474;19.034;2023-03-03T04:48:30;27.15;;;15.55;;
62151;SDS011;48139;47.474;19.034;2023-03-03T04:51:34;27.08;;;14.98;;
62151;SDS011;48139;47.474;19.034;2023-03-03T04:54:37;21.73;;;14.27;;
62151;SDS011;48139;47.474;19.034;2023-03-03T04:57:40;23.15;;;12.18;;
62151;SDS011;48139;47.474;19.034;2023-03-03T05:00:46;25.23;;;10.18;;
62151;SDS011;48139;47.474;19.034;2023-03-03T05:03:54;16.77;;;9.93;;
62151;SDS011;48139;47.474;19.034;2023-03-03T05:06:57;17.52;;;9.57;;
62151;SDS011;48139;47.474;19.034;2023-03-03T05:10:00;18.92;;;9.05;;
62151;SDS011;48139;47.474;19.034;2023-03-03T05:13:03;19.23;;;11.30;;
62151;SDS011;48139;47.474;19.034;2023-03-03T05:16:06;21.10;;;11.18;;
62151;SDS011;48139;47.474;19.034;2023-03-03T05:19:09;26.05;;;12.52;;
62151;SDS011;48139;47.474;19.034;2023-03-03T05:22:12;25.95;;;14.73;;
62151;SDS011;48139;47.474;19.034;2023-03-03T05:25:15;28.65;;;16.55;;
62151;SDS011;48139;47.474;19.034;2023-03-03T05:28:17;29.52;;;15.30;;
62151;SDS011;48139;47.474;19.034;2023-03-03T05:31:20;26.13;;;15.13;;
62151;SDS011;48139;47.474;19.034;2023-03-03T05:34:23;28.38;;;16.52;;
62151;SDS011;48139;47.474;19.034;2023-03-03T05:37:25;27.95;;;15.63;;
62151;SDS011;48139;47.474;19.034;2023-03-03T05:40:28;25.62;;;15.77;;
62151;SDS011;48139;47.474;19.034;2023-03-03T05:43:31;31.98;;;17.23;;
62151;SDS011;48139;47.474;19.034;2023-03-03T05:46:34;34.20;;;17.77;;
62151;SDS011;48139;47.474;19.034;2023-03-03T05:49:36;25.33;;;15.35;;
62151;SDS011;48139;47.474;19.034;2023-03-03T05:52:39;26.42;;;14.15;;
62151;SDS011;48139;47.474;19.034;2023-03-03T05:55:41;27.10;;;15.40;;
62151;SDS011;48139;47.474;19.034;2023-03-03T05:58:44;27.13;;;15.45;;
62151;SDS011;48139;47.474;19.034;2023-03-03T06:01:47;31.50;;;15.75;;
62151;SDS011;48139;47.474;19.034;2023-03-03T06:04:49;28.37;;;17.13;;
62151;SDS011;48139;47.474;19.034;2023-03-03T06:07:52;27.73;;;17.25;;
62151;SDS011;48139;47.474;19.034;2023-03-03T06:10:54;26.45;;;16.52;;
62151;SDS011;48139;47.474;19.034;2023-03-03T06:13:58;30.17;;;17.37;;
62151;SDS011;48139;47.474;19.034;2023-03-03T06:17:01;32.85;;;15.93;;
62151;SDS011;48139;47.474;19.034;2023-03-03T06:20:04;35.40;;;20.03;;
62151;SDS011;48139;47.474;19.034;2023-03-03T06:23:08;33.67;;;18.52;;
62151;SDS011;48139;47.474;19.034;2023-03-03T06:26:10;30.60;;;17.15;;
62151;SDS011;48139;47.474;19.034;2023-03-03T06:29:13;35.00;;;19.10;;
62151;SDS011;48139;47.474;19.034;2023-03-03T06:32:16;32.65;;;19.62;;
62151;SDS011;48139;47.474;19.034;2023-03-03T06:35:20;39.00;;;20.25;;
62151;SDS011;48139;47.474;19.034;2023-03-03T06:38:23;27.00;;;17.80;;
62151;SDS011;48139;47.474;19.034;2023-03-03T06:41:25;34.92;;;19.05;;
62151;SDS011;48139;47.474;19.034;2023-03-03T06:44:28;32.60;;;17.65;;
62151;SDS011;48139;47.474;19.034;2023-03-03T06:47:31;26.40;;;16.60;;
62151;SDS011;48139;47.474;19.034;2023-03-03T06:50:35;28.92;;;17.52;;
62151;SDS011;48139;47.474;19.034;2023-03-03T06:53:38;32.33;;;16.37;;
62151;SDS011;48139;47.474;19.034;2023-03-03T06:56:41;29.50;;;16.10;;
62151;SDS011;48139;47.474;19.034;2023-03-03T06:59:46;28.92;;;16.85;;
62151;SDS011;48139;47.474;19.034;2023-03-03T07:02:56;36.63;;;17.73;;
62151;SDS011;48139;47.474;19.034;2023-03-03T07:06:04;35.33;;;17.83;;
62151;SDS011;48139;47.474;19.034;2023-03-03T07:09:27;24.58;;;15.20;;
62151;SDS011;48139;47.474;19.034;2023-03-03T07:12:31;25.77;;;17.73;;
62151;SDS011;48139;47.474;19.034;2023-03-03T07:15:36;29.05;;;16.05;;
62151;SDS011;48139;47.474;19.034;2023-03-03T07:18:50;35.80;;;16.02;;
62151;SDS011;48139;47.474;19.034;2023-03-03T07:21:55;27.50;;;15.93;;
62151;SDS011;48139;47.474;19.034;2023-03-03T07:24:59;28.12;;;14.30;;
62151;SDS011;48139;47.474;19.034;2023-03-03T07:28:20;30.55;;;16.77;;
62151;SDS011;48139;47.474;19.034;2023-03-03T07:31:30;29.52;;;16.30;;
62151;SDS011;48139;47.474;19.034;2023-03-03T07:34:46;36.00;;;18.10;;
62151;SDS011;48139;47.474;19.034;2023-03-03T07:37:50;27.30;;;15.63;;
62151;SDS011;48139;47.474;19.034;2023-03-03T07:40:54;28.42;;;16.37;;
62151;SDS011;48139;47.474;19.034;2023-03-03T07:44:03;28.90;;;14.43;;
62151;SDS011;48139;47.474;19.034;2023-03-03T07:47:27;29.33;;;16.58;;
62151;SDS011;48139;47.474;19.034;2023-03-03T07:50:30;28.00;;;15.20;;
62151;SDS011;48139;47.474;19.034;2023-03-03T07:53:35;28.10;;;14.82;;
62151;SDS011;48139;47.474;19.034;2023-03-03T07:59:49;33.35;;;15.52;;
62151;SDS011;48139;47.474;19.034;2023-03-03T08:03:02;30.02;;;16.80;;
62151;SDS011;48139;47.474;19.034;2023-03-03T08:06:26;31.03;;;17.40;;
62151;SDS011;48139;47.474;19.034;2023-03-03T08:09:57;26.73;;;15.25;;
62151;SDS011;48139;47.474;19.034;2023-03-03T08:13:06;33.78;;;19.35;;
62151;SDS011;48139;47.474;19.034;2023-03-03T08:19:26;29.73;;;17.65;;
62151;SDS011;48139;47.474;19.034;2023-03-03T08:22:32;35.20;;;19.10;;
62151;SDS011;48139;47.474;19.034;2023-03-03T08:25:39;31.40;;;18.90;;
62151;SDS011;48139;47.474;19.034;2023-03-03T08:28:43;36.85;;;22.05;;
62151;SDS011;48139;47.474;19.034;2023-03-03T08:31:46;27.65;;;19.37;;
62151;SDS011;48139;47.474;19.034;2023-03-03T08:34:49;29.02;;;18.17;;
62151;SDS011;48139;47.474;19.034;2023-03-03T08:37:52;35.05;;;20.23;;
62151;SDS011;48139;47.474;19.034;2023-03-03T08:40:55;39.53;;;20.98;;
62151;SDS011;48139;47.474;19.034;2023-03-03T08:43:57;35.60;;;21.23;;
62151;SDS011;48139;47.474;19.034;2023-03-03T08:47:00;37.90;;;22.08;;
62151;SDS011;48139;47.474;19.034;2023-03-03T08:50:03;31.57;;;21.00;;
62151;SDS011;48139;47.474;19.034;2023-03-03T08:53:06;36.50;;;20.75;;
62151;SDS011;48139;47.474;19.034;2023-03-03T08:56:10;42.05;;;21.58;;
62151;SDS011;48139;47.474;19.034;2023-03-03T08:59:12;32.03;;;20.17;;
62151;SDS011;48139;47.474;19.034;2023-03-03T09:02:15;38.80;;;22.67;;
62151;SDS011;48139;47.474;19.034;2023-03-03T09:05:19;35.45;;;20.35;;
62151;SDS011;48139;47.474;19.034;2023-03-03T09:08:22;43.58;;;21.48;;
62151;SDS011;48139;47.474;19.034;2023-03-03T09:11:26;28.25;;;17.17;;
62151;SDS011;48139;47.474;19.034;2023-03-03T09:14:30;32.65;;;16.55;;
62151;SDS011;48139;47.474;19.034;2023-03-03T09:17:33;30.02;;;17.10;;
62151;SDS011;48139;47.474;19.034;2023-03-03T09:20:43;23.73;;;15.20;;
62151;SDS011;48139;47.474;19.034;2023-03-03T09:23:53;23.90;;;13.90;;
62151;SDS011;48139;47.474;19.034;2023-03-03T09:26:58;25.70;;;15.30;;
62151;SDS011;48139;47.474;19.034;2023-03-03T09:30:02;27.80;;;13.47;;
62151;SDS011;48139;47.474;19.034;2023-03-03T09:33:49;26.85;;;14.32;;
62151;SDS011;48139;47.474;19.034;2023-03-03T09:36:53;27.25;;;17.20;;
62151;SDS011;48139;47.474;19.034;2023-03-03T09:39:57;26.20;;;14.52;;
62151;SDS011;48139;47.474;19.034;2023-03-03T09:46:20;24.58;;;13.60;;
62151;SDS011;48139;47.474;19.034;2023-03-03T09:56:24;19.75;;;10.80;;
62151;SDS011;48139;47.474;19.034;2023-03-03T10:06:48;16.15;;;8.48;;
62151;SDS011;48139;47.474;19.034;2023-03-03T10:10:29;18.77;;;9.68;;
62151;SDS011;48139;47.474;19.034;2023-03-03T10:13:56;15.50;;;8.98;;
62151;SDS011;48139;47.474;19.034;2023-03-03T10:23:55;23.65;;;10.88;;
62151;SDS011;48139;47.474;19.034;2023-03-03T10:31:01;22.65;;;8.98;;
62151;SDS011;48139;47.474;19.034;2023-03-03T10:34:36;16.85;;;7.85;;
62151;SDS011;48139;47.474;19.034;2023-03-03T10:47:59;15.35;;;7.40;;
62151;SDS011;48139;47.474;19.034;2023-03-03T10:55:03;19.42;;;8.70;;
62151;SDS011;48139;47.474;19.034;2023-03-03T11:02:37;20.00;;;8.45;;
62151;SDS011;48139;47.474;19.034;2023-03-03T11:08:54;21.00;;;10.82;;
62151;SDS011;48139;47.474;19.034;2023-03-03T11:12:36;15.23;;;8.05;;
62151;SDS011;48139;47.474;19.034;2023-03-03T11:32:59;18.65;;;8.48;;
62151;SDS011;48139;47.474;19.034;2023-03-03T11:39:13;15.88;;;8.98;;
62151;SDS011;48139;47.474;19.034;2023-03-03T11:45:50;20.95;;;10.98;;
62151;SDS011;48139;47.474;19.034;2023-03-03T11:49:05;19.25;;;9.30;;
62151;SDS011;48139;47.474;19.034;2023-03-03T11:58:40;13.18;;;7.57;;
62151;SDS011;48139;47.474;19.034;2023-03-03T12:01:56;14.10;;;8.43;;
62151;SDS011;48139;47.474;19.034;2023-03-03T12:05:07;15.68;;;8.52;;
62151;SDS011;48139;47.474;19.034;2023-03-03T12:11:52;16.12;;;7.95;;
62151;SDS011;48139;47.474;19.034;2023-03-03T12:24:53;16.58;;;9.25;;
62151;SDS011;48139;47.474;19.034;2023-03-03T12:28:34;13.35;;;7.82;;
62151;SDS011;48139;47.474;19.034;2023-03-03T12:35:08;14.00;;;7.18;;
62151;SDS011;48139;47.474;19.034;2023-03-03T12:42:11;14.05;;;8.20;;
62151;SDS011;48139;47.474;19.034;2023-03-03T12:48:43;12.35;;;6.43;;
62151;SDS011;48139;47.474;19.034;2023-03-03T13:12:29;14.57;;;9.13;;
62151;SDS011;48139;47.474;19.034;2023-03-03T13:15:47;14.52;;;9.50;;
62151;SDS011;48139;47.474;19.034;2023-03-03T13:19:07;17.67;;;8.02;;
62151;SDS011;48139;47.474;19.034;2023-03-03T13:22:21;13.07;;;9.32;;
62151;SDS011;48139;47.474;19.034;2023-03-03T13:38:52;12.70;;;7.70;;
62151;SDS011;48139;47.474;19.034;2023-03-03T13:42:00;15.35;;;8.10;;
62151;SDS011;48139;47.474;19.034;2023-03-03T13:45:12;15.27;;;8.73;;
62151;SDS011;48139;47.474;19.034;2023-03-03T13:55:09;13.18;;;7.25;;
62151;SDS011;48139;47.474;19.034;2023-03-03T14:01:56;10.00;;;6.93;;
62151;SDS011;48139;47.474;19.034;2023-03-03T14:15:49;14.23;;;7.25;;
62151;SDS011;48139;47.474;19.034;2023-03-03T14:19:25;12.50;;;7.10;;
62151;SDS011;48139;47.474;19.034;2023-03-03T14:29:20;13.18;;;8.75;;
62151;SDS011;48139;47.474;19.034;2023-03-03T14:32:25;19.15;;;9.60;;
62151;SDS011;48139;47.474;19.034;2023-03-03T14:39:00;14.87;;;10.30;;
62151;SDS011;48139;47.474;19.034;2023-03-03T14:42:14;16.90;;;11.20;;
62151;SDS011;48139;47.474;19.034;2023-03-03T14:48:50;17.75;;;10.32;;
62151;SDS011;48139;47.474;19.034;2023-03-03T14:55:26;24.70;;;12.70;;
62151;SDS011;48139;47.474;19.034;2023-03-03T14:58:39;21.17;;;11.40;;
62151;SDS011;48139;47.474;19.034;2023-03-03T15:01:43;18.60;;;12.05;;
62151;SDS011;48139;47.474;19.034;2023-03-03T15:04:46;23.20;;;12.48;;
62151;SDS011;48139;47.474;19.034;2023-03-03T15:14:37;21.15;;;11.27;;
62151;SDS011;48139;47.474;19.034;2023-03-03T15:21:04;19.58;;;13.25;;
62151;SDS011;48139;47.474;19.034;2023-03-03T15:24:13;20.42;;;12.30;;
62151;SDS011;48139;47.474;19.034;2023-03-03T15:27:34;19.70;;;12.57;;
62151;SDS011;48139;47.474;19.034;2023-03-03T15:30:46;22.17;;;13.05;;
62151;SDS011;48139;47.474;19.034;2023-03-03T15:46:59;24.05;;;13.35;;
62151;SDS011;48139;47.474;19.034;2023-03-03T15:50:29;19.27;;;10.80;;
62151;SDS011;48139;47.474;19.034;2023-03-03T15:57:03;19.35;;;11.95;;
62151;SDS011;48139;47.474;19.034;2023-03-03T16:03:42;23.55;;;12.55;;
62151;SDS011;48139;47.474;19.034;2023-03-03T16:06:55;24.35;;;11.55;;
62151;SDS011;48139;47.474;19.034;2023-03-03T16:13:29;21.87;;;12.32;;
